Julian Carroll Airport
KJKL : now visible

Airfield :











YOU CAN JOIN US ON...

 
LOGIN :

Register | Disclaimer

   EN    FR    IT 

 









Legend :    VFR   Marginal VFR   IFR   Intensive IFR   Very Intensive IFR
Visi :
Ceiling :
>= 8 km
>= 3000ft
5 to 8 km
1000 to 3000 ft
1500m to 5 km
500 to 1000 ft
800 to 1500m
200 to 500 ft
< 800m
< 200 ft
Symbols :   Thunderstorms  Fog  Heavy snow  Heavy precipitations  Wind > 20 kt






- Airport Elevation : 1381 ft


KJKL - Julian Carroll

CURRENT METAR :
  • 042253Z AUTO 29004KT 10SM CLR 26/17 A3000 RMK AO2 SLP144 T02610172

EXPIRED METARs :
  • 042153Z AUTO VRB04KT 10SM FEW040 BKN050 OVC090 25/17 A3000 RMK AO2 SLP144 T02500172
  • 042053Z AUTO 33005KT 10SM FEW060 27/17 A2999 RMK AO2 SLP141 T02670172 58004

TAF KJKL
Valid from the 05 at 00:00 until the 06 at 00:00 UTC


042325Z 0500/0524 VRB03KT P6SM SCT250
FM050900 VRB03KT 5SM BR SKC
FM051000 00000KT 1/4SM FG VV002
FM051300 00000KT 4SM BR OVC003
FM051500 00000KT P6SM SCT030
KZID FIR / North America



MET'MAP, your aeronautical weather chart ! - Copyright ORBIFLY December 2007 - Disclaimer

ORBIFLY MET'MAP TEAM :

Programming & Development : Alexandra Zaïnal
Concept & original design : Baudouin d'Aumeries
Assistance for programming : Marc-Olivier Méhu
Technical & hardware support : Manuel Goepfert

Contact : metmap@orbifly.com




SOURCES & CREDITS :

   NOAA       Earth
Advisory